Flight Track Log - Related Links

Times and Time Zones

All times are in EDT time to prevent confusion due to time zone crossing. See the RPA3275 flight status page for this flight to view local times or setup timezone preferences in your user account.

Time Position Orientation Groundspeed Altitude Reporting Facility
EDT Latitude Longitude Course Direction KTS MPH feet Rate Location/Type
Thu 07:24:02 AM 42.7278 -73.8081 220° Southwest 133 153 1,600  Level Boston Center
Thu 07:24:57 AM 42.7025 -73.8331 216° Southwest 184 212 2,700 1,759 Climbing Boston Center
Thu 07:25:58 AM 42.7117 -73.9178 278° West 239 275 5,000 1,867 Climbing Boston Center
Thu 07:26:00 AM 42.7333 -74.2977 270° West  Level FlightAware Approximate
Thu 07:26:27 AM 42.7136 -73.9350 279° West 244 281 5,500  Level Boston Center
Thu 07:27:00 AM 42.6469 -74.4119 220° Southwest  Level FlightAware Approximate
Thu 07:27:39 AM 42.7244 -74.0511 277° West 250 288 8,800  Level Boston Center
Thu 07:28:00 AM 42.5544 -74.5195 223° Southwest  Level FlightAware Approximate
Thu 07:28:39 AM 42.7353 -74.1786 277° West 272 313 12,000  Level Boston Center
Thu 07:29:00 AM 42.4624 -74.6278 220° Southwest  Level FlightAware Approximate
Thu 07:29:39 AM 42.7419 -74.2750 275° West 286 329 14,200  Level Boston Center
Thu 07:30:39 AM 42.6947 -74.3667 235° Southwest 263 303 16,000 900 Climbing Boston Center
Thu 07:31:39 AM 42.6394 -74.4300 220° Southwest 271 312 16,000  Level Boston Center
Thu 07:32:39 AM 42.5756 -74.5069 222° Southwest 289 333 16,000  Level Boston Center
Thu 07:33:39 AM 42.5200 -74.5669 219° Southwest 289 333 16,000  Level Boston Center
Thu 07:34:39 AM 42.4542 -74.6436 221° Southwest 289 333 16,000  Level Boston Center
Thu 07:35:39 AM 42.3986 -74.7061 220° Southwest 289 333 16,000  Level Boston Center
Thu 07:36:39 AM 42.3325 -74.7797 219° Southwest 289 333 16,000  Level Boston Center
Thu 07:39:03 AM 42.1936 -74.9386 220° Southwest 285 328 16,000  Level New York Center
Thu 07:40:03 AM 42.1225 -75.0069 215° Southwest 293 337 16,000  Level New York Center
Thu 07:41:04 AM 42.0561 -75.0611 211° Southwest 287 330 16,000  Level New York Center
Thu 07:42:05 AM 41.9875 -75.1153 210° Southwest 287 330 16,000  Level New York Center
Thu 07:43:02 AM 41.9211 -75.1694 211° Southwest 287 330 16,000  Level New York Center
Thu 07:44:02 AM 41.8608 -75.2183 211° Southwest 287 330 16,000  Level New York Center
Thu 07:45:05 AM 41.7856 -75.2803 212° Southwest 287 330 16,000  Level New York Center
Thu 07:46:05 AM 41.7169 -75.3367 212° Southwest 287 330 16,000  Level New York Center
Thu 07:47:03 AM 41.6503 -75.3903 211° Southwest 287 330 16,000 -200 Level New York Center
Thu 07:48:05 AM 41.5900 -75.4389 211° Southwest 287 330 15,600 -900 Descending New York Center
Thu 07:49:03 AM 41.5214 -75.4922 210° Southwest 287 330 14,200 -1,613 Descending New York Center
Thu 07:50:04 AM 41.4481 -75.5508 211° Southwest 287 330 12,400 -1,131 Descending New York Center
Thu 07:51:05 AM 41.3814 -75.6042 211° Southwest 277 319 11,900 -250 Descending New York Center
Thu 07:52:04 AM 41.3189 -75.6547 211° Southwest 277 319 11,900  Level New York Center
Thu 07:53:05 AM 41.2508 -75.6914 202° Southwest 277 319 11,900  Level New York Center
Thu 07:54:03 AM 41.1800 -75.6889 178° South 271 312 11,900  Level New York Center
Thu 07:55:04 AM 41.1072 -75.6892 180° South 278 320 11,900  Level New York Center
Thu 07:56:04 AM 41.0219 -75.6858 178° South 272 313 11,900 50 Level New York Center
Thu 07:57:05 AM 40.9511 -75.6861 180° South 277 319 12,000 50 Climbing New York Center
Thu 07:58:04 AM 40.8761 -75.6861 180° South 277 319 12,000  Level New York Center
Thu 07:59:04 AM 40.7947 -75.6858 180° South 271 312 12,000  Level New York Center
Thu 08:00:05 AM 40.7178 -75.6858 180° South 271 312 12,000  Level New York Center
Thu 08:01:03 AM 40.6489 -75.6864 180° South 271 312 12,000  Level New York Center
Thu 08:02:04 AM 40.5728 -75.6617 166° South 271 312 12,000  Level New York Center
Thu 08:03:04 AM 40.5183 -75.5650 127° Southeast 277 319 12,000 -706 Level New York Center
Thu 08:04:03 AM 40.4719 -75.4744 124° Southeast 294 338 10,600 -1,008 Descending New York Center
Thu 08:05:03 AM 40.4200 -75.4164 140° Southeast 282 325 10,000 -300 Descending New York Center
Thu 08:06:03 AM 40.3508 -75.3736 155° Southeast 277 319 10,000 -694 Level New York Center
Thu 08:07:04 AM 40.2769 -75.3986 194° South 260 299 8,600 -950 Descending New York Center
Thu 08:08:03 AM 40.2153 -75.4353 204° Southwest 249 287 8,100 -756 Descending New York Center
Thu 08:09:03 AM 40.1658 -75.4672 206° Southwest 232 267 7,100 -545 Descending New York Center
Thu 08:10:04 AM 40.1014 -75.4628 177° South 209 241 7,000 -99 Descending New York Center
Thu 08:11:04 AM 40.0703 -75.4092 127° Southeast 209 241 6,900 -496 Descending New York Center
Thu 08:12:05 AM 40.0636 -75.3111 95° East 209 241 6,000 -505 Descending New York Center
Thu 08:12:51 AM 40.0667 -75.2333 87° East 237 273 6,000  Level Philadelphia TRACON
Thu 08:13:45 AM 40.0333 -75.2000 143° Southeast 188 216 6,000  Level Philadelphia TRACON
Thu 08:14:45 AM 39.9833 -75.1500 143° Southeast 213 245 6,000  Level Philadelphia TRACON
Thu 08:15:51 AM 40.0000 -75.0667 75° East 235 270 6,000 -524 Level Philadelphia TRACON
Thu 08:16:51 AM 40.0167 -74.9833 75° East 231 266 4,900 -1,200 Descending Philadelphia TRACON
Thu 08:17:51 AM 40.0333 -74.9167 72° East 231 266 3,600 -942 Descending Philadelphia TRACON
Thu 08:18:52 AM 40.0000 -74.8667 131° Southeast 178 205 3,000 -298 Descending Philadelphia TRACON
Thu 08:19:52 AM 39.9500 -74.8667 180° South 181 208 3,000  Level Philadelphia TRACON
Thu 08:20:52 AM 39.9333 -74.9333 252° West 173 199 3,000  Level Philadelphia TRACON
Thu 08:21:58 AM 39.9167 -74.9833 247° West 153 176 3,000 -95 Level Philadelphia TRACON
Thu 08:22:58 AM 39.9167 -75.0333 270° West 153 176 2,800 -474 Descending Philadelphia TRACON
Thu 08:23:52 AM 39.9000 -75.0833 247° West 153 176 2,100 -778 Descending Philadelphia TRACON

Login

Don't have an account? Register now (free) for customized features, flight alerts, and more!